createdAt,value
2019-04-29T00:00:08.391Z,4.90
2019-04-29T00:02:39.884Z,4.50
2019-04-29T00:05:08.745Z,3.20
2019-04-29T00:07:38.934Z,3.57
2019-04-29T00:10:11.528Z,3.00
2019-04-29T00:12:40.297Z,3.57
2019-04-29T00:15:29.805Z,6.43
2019-04-29T00:18:02.573Z,4.37
2019-04-29T00:20:41.343Z,3.90
2019-04-29T00:23:10.340Z,4.40
2019-04-29T00:25:39.090Z,4.03
2019-04-29T00:28:07.807Z,4.53
2019-04-29T00:30:36.620Z,4.93
2019-04-29T00:33:05.294Z,6.37
2019-04-29T00:35:34.715Z,3.60
2019-04-29T00:38:20.610Z,4.77
2019-04-29T00:41:08.690Z,4.13
2019-04-29T00:43:42.199Z,4.13
2019-04-29T00:46:12.294Z,6.97
2019-04-29T00:48:40.978Z,4.63
2019-04-29T00:51:09.808Z,3.80
2019-04-29T00:53:40.731Z,4.47
2019-04-29T00:56:11.673Z,4.50
2019-04-29T00:58:40.335Z,4.00
2019-04-29T01:01:13.270Z,3.57
2019-04-29T01:03:42.379Z,3.10
2019-04-29T01:06:11.017Z,4.53
2019-04-29T01:08:43.452Z,10.63
2019-04-29T01:11:12.639Z,4.33
2019-04-29T01:13:41.606Z,4.23
2019-04-29T01:16:10.273Z,5.20
2019-04-29T01:18:39.276Z,4.90
2019-04-29T01:21:08.188Z,4.03
2019-04-29T01:23:36.898Z,4.30
2019-04-29T01:26:23.765Z,4.70
2019-04-29T01:28:57.563Z,4.10
2019-04-29T01:31:30.006Z,4.60
2019-04-29T01:34:09.664Z,4.63
2019-04-29T01:36:40.559Z,5.80
2019-04-29T01:39:10.439Z,5.93
2019-04-29T01:42:01.248Z,5.60
2019-04-29T01:44:31.519Z,3.97
2019-04-29T01:47:00.524Z,8.03
2019-04-29T01:49:29.372Z,7.50
2019-04-29T01:51:58.650Z,4.53
2019-04-29T01:54:27.656Z,6.57
2019-04-29T01:56:56.735Z,5.73
2019-04-29T01:59:25.686Z,5.40
2019-04-29T02:01:54.355Z,5.30
2019-04-29T02:04:23.153Z,6.03
2019-04-29T02:06:52.377Z,5.70
2019-04-29T02:09:29.561Z,7.37
2019-04-29T02:11:58.410Z,6.73
2019-04-29T02:14:27.337Z,7.57
2019-04-29T02:16:55.987Z,10.10
2019-04-29T02:19:24.954Z,6.60
2019-04-29T02:22:14.416Z,7.97
2019-04-29T02:24:46.632Z,5.93
2019-04-29T02:27:15.318Z,6.27
2019-04-29T02:29:43.999Z,8.43
2019-04-29T02:32:12.666Z,9.37
2019-04-29T02:34:41.398Z,7.23
2019-04-29T02:37:11.709Z,6.03
2019-04-29T02:39:45.730Z,10.60
2019-04-29T02:42:42.737Z,8.10
2019-04-29T02:45:19.648Z,9.33
2019-04-29T02:47:48.397Z,8.13
2019-04-29T02:50:18.013Z,8.27
2019-04-29T02:52:47.017Z,9.10
2019-04-29T02:55:19.122Z,9.60
2019-04-29T02:57:56.819Z,9.07
2019-04-29T03:00:34.355Z,9.87
2019-04-29T03:03:12.785Z,8.90
2019-04-29T03:05:48.441Z,9.43
2019-04-29T03:08:17.791Z,9.83
2019-04-29T03:10:46.675Z,8.97
2019-04-29T03:13:15.571Z,11.67
2019-04-29T03:15:44.836Z,10.30
2019-04-29T03:18:13.811Z,10.67
2019-04-29T03:21:05.033Z,10.23
2019-04-29T03:23:34.372Z,12.33
2019-04-29T03:26:03.638Z,9.20
2019-04-29T03:28:32.839Z,9.77
2019-04-29T03:31:01.693Z,10.10
2019-04-29T03:33:30.820Z,10.80
2019-04-29T03:36:00.616Z,9.53
2019-04-29T03:38:29.335Z,12.67
2019-04-29T03:40:58.037Z,8.80
2019-04-29T03:43:26.935Z,10.23
2019-04-29T03:45:55.905Z,9.07
2019-04-29T03:48:24.672Z,12.47
2019-04-29T03:50:53.512Z,12.10
2019-04-29T03:53:22.160Z,14.87
2019-04-29T03:55:53.092Z,12.00
2019-04-29T03:58:21.759Z,14.33
2019-04-29T04:00:53.536Z,11.33
2019-04-29T04:03:38.796Z,15.67
2019-04-29T04:06:13.441Z,15.37
2019-04-29T04:08:44.747Z,13.43
2019-04-29T04:11:13.762Z,15.77
2019-04-29T04:13:42.468Z,12.37
2019-04-29T04:16:16.699Z,14.47
2019-04-29T04:18:45.426Z,15.20
2019-04-29T04:21:14.657Z,14.83
2019-04-29T04:23:43.870Z,17.27
2019-04-29T04:26:12.585Z,13.33
2019-04-29T04:28:41.264Z,15.17
2019-04-29T04:31:10.019Z,21.50
2019-04-29T04:33:38.762Z,14.17
2019-04-29T04:36:07.694Z,14.47
2019-04-29T04:38:36.648Z,20.23
2019-04-29T04:41:08.249Z,16.67
2019-04-29T04:43:37.190Z,18.67
2019-04-29T04:46:05.942Z,16.23
2019-04-29T04:48:34.725Z,16.30
2019-04-29T04:51:03.413Z,15.07
2019-04-29T04:53:32.516Z,16.00
2019-04-29T04:56:01.713Z,15.40
2019-04-29T04:58:31.625Z,15.30
2019-04-29T05:01:00.823Z,19.03
2019-04-29T05:03:29.624Z,19.50
2019-04-29T05:05:58.803Z,14.73
2019-04-29T05:08:27.563Z,15.47
2019-04-29T05:10:56.292Z,17.20
2019-04-29T05:13:28.134Z,18.30
2019-04-29T05:15:55.833Z,19.10
2019-04-29T05:18:25.043Z,17.50
2019-04-29T05:20:54.114Z,15.67
2019-04-29T05:23:22.786Z,19.10
2019-04-29T05:25:51.595Z,16.87
2019-04-29T05:28:20.303Z,16.47
2019-04-29T05:30:49.062Z,18.17
2019-04-29T05:33:17.774Z,18.13
2019-04-29T05:36:01.904Z,14.77
2019-04-29T05:38:36.958Z,17.90
2019-04-29T05:41:05.619Z,18.10
2019-04-29T05:43:47.093Z,15.87
2019-04-29T05:46:38.345Z,18.73
2019-04-29T05:49:09.066Z,16.70
2019-04-29T05:51:46.894Z,17.73
2019-04-29T05:54:16.959Z,14.63
2019-04-29T05:56:45.654Z,16.90
2019-04-29T05:59:14.383Z,20.60
2019-04-29T06:01:47.162Z,17.47
2019-04-29T06:04:16.340Z,16.07
2019-04-29T06:06:44.506Z,14.70
2019-04-29T06:09:16.655Z,14.90
2019-04-29T06:11:43.623Z,14.43
2019-04-29T06:14:12.915Z,14.07
2019-04-29T06:16:41.563Z,15.53
2019-04-29T06:19:10.381Z,15.70
2019-04-29T06:21:39.025Z,14.33
2019-04-29T06:24:07.784Z,13.70
2019-04-29T06:26:36.465Z,19.67
2019-04-29T06:29:05.974Z,13.37
2019-04-29T06:31:34.947Z,18.10
2019-04-29T06:34:05.366Z,14.87
2019-04-29T06:36:34.426Z,16.23
2019-04-29T06:39:04.094Z,14.23
2019-04-29T06:41:33.080Z,16.33
2019-04-29T06:44:05.852Z,11.70
2019-04-29T06:46:32.490Z,13.80
2019-04-29T06:49:10.141Z,11.47
2019-04-29T06:51:31.991Z,11.60
2019-04-29T06:54:00.682Z,13.93
2019-04-29T06:56:29.363Z,11.27
2019-04-29T06:58:58.386Z,12.80
2019-04-29T07:01:27.386Z,14.53
2019-04-29T07:03:59.808Z,15.43
2019-04-29T07:06:26.713Z,10.43
2019-04-29T07:08:56.091Z,13.03
2019-04-29T07:11:24.787Z,9.03
2019-04-29T07:13:57.289Z,10.13
2019-04-29T07:16:27.210Z,12.60
2019-04-29T07:18:54.548Z,10.63
2019-04-29T07:21:23.185Z,9.27
2019-04-29T07:23:52.104Z,12.17
2019-04-29T07:26:20.747Z,8.73
2019-04-29T07:28:53.348Z,9.10
2019-04-29T07:31:19.882Z,9.03
2019-04-29T07:33:48.548Z,8.77
2019-04-29T07:36:18.726Z,7.30
2019-04-29T07:38:51.757Z,10.00
2019-04-29T07:41:18.968Z,11.40
2019-04-29T07:43:48.544Z,15.57
2019-04-29T07:46:56.040Z,10.73
2019-04-29T07:49:12.699Z,11.23
2019-04-29T07:51:42.296Z,13.30
2019-04-29T07:54:15.819Z,12.83
2019-04-29T07:56:42.458Z,14.00
2019-04-29T07:59:11.779Z,12.97
2019-04-29T08:01:40.503Z,15.20
2019-04-29T08:04:09.266Z,14.07
2019-04-29T08:06:42.711Z,12.33
2019-04-29T08:09:09.943Z,15.10
2019-04-29T08:11:38.663Z,13.90
2019-04-29T08:14:07.690Z,14.10
2019-04-29T08:16:36.654Z,15.97
2019-04-29T08:19:05.624Z,14.57
2019-04-29T08:21:34.651Z,14.73
2019-04-29T08:24:03.306Z,17.27
2019-04-29T08:26:33.715Z,18.43
2019-04-29T08:29:02.367Z,14.60
2019-04-29T08:31:31.058Z,14.77
2019-04-29T08:34:00.096Z,15.40
2019-04-29T08:36:29.079Z,12.90
2019-04-29T08:39:07.975Z,16.30
2019-04-29T08:41:29.805Z,13.77
2019-04-29T08:44:25.631Z,13.37
2019-04-29T08:47:01.070Z,15.70
2019-04-29T08:49:30.243Z,17.47
2019-04-29T08:51:58.977Z,19.00
2019-04-29T08:54:27.690Z,14.00
2019-04-29T08:57:02.961Z,16.03
2019-04-29T08:59:26.887Z,22.47
2019-04-29T09:01:55.900Z,20.43
2019-04-29T09:04:24.615Z,15.50
2019-04-29T09:06:55.305Z,16.53
2019-04-29T09:09:29.301Z,16.63
2019-04-29T09:11:54.819Z,13.50
2019-04-29T09:14:23.557Z,13.83
2019-04-29T09:16:52.372Z,18.77
2019-04-29T09:19:21.123Z,13.67
2019-04-29T09:21:53.355Z,14.33
2019-04-29T09:24:22.113Z,15.13
2019-04-29T09:26:56.334Z,15.60
2019-04-29T09:29:33.106Z,14.57
2019-04-29T09:32:02.189Z,10.10
2019-04-29T09:34:30.937Z,13.37
2019-04-29T09:36:59.587Z,16.00
2019-04-29T09:39:42.036Z,14.20
2019-04-29T09:42:16.304Z,14.83
2019-04-29T09:45:02.870Z,17.57
2019-04-29T09:47:32.108Z,21.27
2019-04-29T09:50:00.856Z,15.70
2019-04-29T09:52:30.051Z,16.53
2019-04-29T09:54:59.535Z,16.23
2019-04-29T09:57:29.574Z,13.57
2019-04-29T10:00:05.102Z,13.63
2019-04-29T10:02:48.664Z,15.43
2019-04-29T10:05:30.181Z,12.40
2019-04-29T10:07:59.166Z,14.17
2019-04-29T10:10:28.045Z,11.73
2019-04-29T10:12:57.109Z,16.57
2019-04-29T10:15:42.559Z,16.47
2019-04-29T10:18:19.091Z,16.33
2019-04-29T10:20:51.699Z,13.57
2019-04-29T10:23:20.419Z,12.90
2019-04-29T10:25:49.963Z,14.17
2019-04-29T10:28:18.602Z,13.13
2019-04-29T10:30:48.725Z,18.73
2019-04-29T10:33:19.358Z,12.53
2019-04-29T10:35:48.336Z,16.50
2019-04-29T10:38:16.995Z,14.27
2019-04-29T10:41:00.560Z,16.23
2019-04-29T10:43:49.332Z,13.33
2019-04-29T10:46:45.223Z,18.37
2019-04-29T10:49:20.308Z,14.57
2019-04-29T10:51:49.093Z,15.93
2019-04-29T10:54:17.986Z,12.90
2019-04-29T10:56:47.290Z,10.67
2019-04-29T10:59:16.375Z,17.00
2019-04-29T11:02:25.973Z,15.83
2019-04-29T11:04:58.802Z,16.33
2019-04-29T11:07:37.012Z,11.87
2019-04-29T11:10:24.422Z,19.90
2019-04-29T11:12:44.168Z,15.87
2019-04-29T11:15:15.359Z,12.70
2019-04-29T11:17:46.292Z,14.33
2019-04-29T11:20:15.809Z,11.37
2019-04-29T11:22:51.539Z,14.00
2019-04-29T11:25:40.660Z,7.70
2019-04-29T11:28:12.172Z,13.83
2019-04-29T11:30:40.733Z,9.90
2019-04-29T11:33:24.363Z,11.50
2019-04-29T11:36:12.744Z,10.43
2019-04-29T11:38:41.843Z,16.03
2019-04-29T11:41:12.253Z,11.20
2019-04-29T11:43:41.325Z,9.93
2019-04-29T11:46:14.301Z,14.20
2019-04-29T11:48:41.335Z,19.87
2019-04-29T11:51:18.049Z,13.17
2019-04-29T11:53:46.804Z,10.83
2019-04-29T11:56:16.821Z,18.83
2019-04-29T11:58:52.716Z,15.73
2019-04-29T12:01:46.769Z,12.53
2019-04-29T12:04:17.415Z,13.43
2019-04-29T12:06:46.350Z,16.17
2019-04-29T12:09:15.198Z,17.47
2019-04-29T12:11:43.911Z,13.63
2019-04-29T12:14:22.025Z,15.00
2019-04-29T12:16:58.606Z,9.17
2019-04-29T12:19:30.877Z,13.27
2019-04-29T12:22:00.473Z,12.90
2019-04-29T12:24:29.831Z,8.80
2019-04-29T12:26:58.994Z,9.63
2019-04-29T12:29:27.775Z,10.53
2019-04-29T12:32:09.727Z,15.43
2019-04-29T12:35:09.644Z,11.13
2019-04-29T12:37:52.322Z,13.80
2019-04-29T12:40:49.785Z,13.20
2019-04-29T12:43:36.186Z,9.43
2019-04-29T12:46:10.335Z,9.83
2019-04-29T12:48:39.425Z,9.87
2019-04-29T12:51:08.167Z,12.50
2019-04-29T12:53:36.951Z,10.90
2019-04-29T12:56:07.148Z,13.60
2019-04-29T12:58:36.345Z,8.53
2019-04-29T13:01:16.511Z,9.27
2019-04-29T13:03:53.033Z,9.53
2019-04-29T13:06:38.743Z,11.20
2019-04-29T13:09:01.981Z,7.17
2019-04-29T13:11:45.531Z,17.77
2019-04-29T13:14:01.835Z,14.93
2019-04-29T13:16:38.131Z,10.70
2019-04-29T13:19:14.516Z,11.10
2019-04-29T13:21:41.978Z,13.63
2019-04-29T13:24:22.884Z,12.30
2019-04-29T13:26:42.907Z,17.53
2019-04-29T13:29:25.975Z,11.00
2019-04-29T13:31:42.514Z,8.23
2019-04-29T13:34:23.731Z,12.57
2019-04-29T13:36:44.508Z,12.00
2019-04-29T13:39:13.216Z,15.20
2019-04-29T13:41:56.114Z,13.80
2019-04-29T13:44:12.548Z,16.13
2019-04-29T13:47:03.571Z,12.47
2019-04-29T13:50:17.063Z,11.50
2019-04-29T13:52:31.610Z,7.20
2019-04-29T13:55:16.599Z,10.27
2019-04-29T13:57:31.162Z,10.90
2019-04-29T14:00:31.066Z,8.43
2019-04-29T14:03:11.625Z,12.97
2019-04-29T14:05:41.447Z,8.07
2019-04-29T14:08:09.132Z,10.40
2019-04-29T14:10:37.810Z,9.60
2019-04-29T14:13:13.277Z,11.60
2019-04-29T14:15:40.379Z,11.37
2019-04-29T14:18:11.855Z,11.10
2019-04-29T14:20:38.074Z,10.70
2019-04-29T14:23:06.855Z,8.10
2019-04-29T14:25:35.669Z,12.13
2019-04-29T14:28:04.496Z,6.70
2019-04-29T14:30:39.088Z,10.90
2019-04-29T14:33:03.832Z,9.65
2019-04-29T14:35:38.034Z,8.10
2019-04-29T14:38:07.321Z,11.33
2019-04-29T14:40:38.985Z,14.30
2019-04-29T14:43:31.010Z,12.13
2019-04-29T14:46:27.780Z,8.95
2019-04-29T14:49:04.519Z,9.87
2019-04-29T14:51:36.733Z,9.53
2019-04-29T14:54:05.615Z,6.08
2019-04-29T14:56:35.302Z,4.83
2019-04-29T14:59:10.047Z,9.20
2019-04-29T15:01:58.228Z,10.37
2019-04-29T15:04:36.322Z,7.03
2019-04-29T15:07:05.574Z,7.40
2019-04-29T15:09:45.954Z,9.33
2019-04-29T15:12:23.913Z,9.97
2019-04-29T15:15:18.637Z,5.03
2019-04-29T15:17:57.620Z,9.77
2019-04-29T15:20:45.820Z,5.10
2019-04-29T15:23:27.990Z,7.23
2019-04-29T15:25:44.995Z,5.17
2019-04-29T15:28:13.657Z,10.43
2019-04-29T15:30:42.669Z,4.97
2019-04-29T15:33:11.466Z,7.20
2019-04-29T15:35:40.147Z,8.60
2019-04-29T15:38:08.786Z,6.80
2019-04-29T15:40:42.739Z,6.63
2019-04-29T15:43:08.132Z,10.37
2019-04-29T15:45:36.863Z,4.53
2019-04-29T15:48:05.858Z,5.63
2019-04-29T15:50:37.216Z,5.93
2019-04-29T15:53:05.138Z,12.33
2019-04-29T15:55:34.937Z,10.43
2019-04-29T15:58:04.327Z,3.30
2019-04-29T16:00:37.807Z,6.93
2019-04-29T16:03:03.801Z,6.33
2019-04-29T16:05:56.116Z,8.10
2019-04-29T16:08:32.318Z,9.93
2019-04-29T16:11:17.060Z,8.53
2019-04-29T16:13:49.950Z,4.97
2019-04-29T16:16:17.339Z,5.97
2019-04-29T16:18:46.010Z,5.07
2019-04-29T16:21:14.829Z,9.27
2019-04-29T16:23:43.795Z,7.30
2019-04-29T16:26:12.466Z,7.37
2019-04-29T16:28:41.109Z,17.13
2019-04-29T16:31:12.438Z,5.87
2019-04-29T16:33:40.202Z,2.40
2019-04-29T16:36:08.901Z,3.53
2019-04-29T16:38:37.634Z,5.43
2019-04-29T16:41:20.568Z,5.00
2019-04-29T16:43:49.773Z,3.30
2019-04-29T16:46:23.549Z,6.70
2019-04-29T16:48:52.608Z,6.63
2019-04-29T16:51:21.380Z,2.57
2019-04-29T16:53:50.354Z,2.33
2019-04-29T16:56:19.291Z,2.70
2019-04-29T16:58:48.022Z,3.93
2019-04-29T17:01:16.944Z,2.90
2019-04-29T17:03:45.674Z,3.27
2019-04-29T17:06:14.468Z,5.43
2019-04-29T17:11:32.878Z,4.53
2019-04-29T17:14:03.517Z,2.67
2019-04-29T17:16:31.972Z,1.60
2019-04-29T17:19:00.671Z,4.77
2019-04-29T17:21:29.349Z,3.37
2019-04-29T17:23:58.052Z,2.47
2019-04-29T17:26:33.753Z,5.83
2019-04-29T17:29:38.328Z,8.10
2019-04-29T17:32:16.750Z,1.90
2019-04-29T17:34:59.013Z,4.47
2019-04-29T17:35:17.622Z,3.27
2019-04-29T17:37:16.834Z,2.77
2019-04-29T17:39:45.658Z,6.83
2019-04-29T17:42:14.764Z,2.60
2019-04-29T17:44:45.293Z,4.33
2019-04-29T17:47:32.994Z,3.10
2019-04-29T17:50:29.393Z,2.10
2019-04-29T17:52:50.346Z,2.83
2019-04-29T17:55:37.379Z,4.00
2019-04-29T17:58:19.793Z,2.17
2019-04-29T18:01:03.126Z,4.87
2019-04-29T18:03:46.062Z,3.23
2019-04-29T18:06:33.206Z,2.30
2019-04-29T18:09:21.413Z,5.03
2019-04-29T18:11:53.595Z,3.83
2019-04-29T18:14:21.641Z,4.90
2019-04-29T18:16:50.356Z,4.07
2019-04-29T18:19:38.441Z,3.90
2019-04-29T18:22:25.037Z,9.23
2019-04-29T18:25:02.112Z,3.60
2019-04-29T18:27:34.434Z,5.87
2019-04-29T18:30:06.900Z,2.30
2019-04-29T18:32:36.411Z,11.17
2019-04-29T18:35:05.264Z,6.27
2019-04-29T18:37:36.869Z,4.43
2019-04-29T18:40:05.942Z,1.90
2019-04-29T18:42:38.348Z,6.43
2019-04-29T18:45:05.733Z,3.50
2019-04-29T18:47:36.323Z,3.70
2019-04-29T18:50:05.698Z,2.90
2019-04-29T18:52:35.183Z,1.83
2019-04-29T18:55:05.754Z,3.13
2019-04-29T18:57:35.775Z,4.30
2019-04-29T19:00:11.819Z,9.03
2019-04-29T19:02:45.439Z,4.20
2019-04-29T19:05:14.977Z,3.70
2019-04-29T19:07:54.347Z,12.03
2019-04-29T19:10:18.409Z,3.13
2019-04-29T19:12:57.171Z,13.07
2019-04-29T19:15:17.898Z,7.17
2019-04-29T19:17:58.472Z,2.53
2019-04-29T19:20:18.660Z,2.20
2019-04-29T19:22:47.633Z,4.20
2019-04-29T19:25:16.427Z,3.23
2019-04-29T19:27:45.575Z,3.90
2019-04-29T19:30:20.784Z,3.57
2019-04-29T19:32:46.853Z,5.77
2019-04-29T19:35:16.945Z,4.00
2019-04-29T19:37:56.090Z,3.97
2019-04-29T19:40:25.857Z,4.40
2019-04-29T19:42:55.906Z,2.90
2019-04-29T19:45:24.730Z,3.87
2019-04-29T19:47:53.497Z,2.33
2019-04-29T19:50:22.208Z,2.07
2019-04-29T19:52:51.203Z,4.00
2019-04-29T19:55:19.941Z,4.10
2019-04-29T19:57:52.308Z,2.30
2019-04-29T20:00:28.424Z,3.27
2019-04-29T20:02:51.150Z,3.83
2019-04-29T20:05:31.706Z,4.13
2019-04-29T20:07:59.031Z,3.53
2019-04-29T20:10:29.339Z,3.00
2019-04-29T20:12:58.680Z,5.57
2019-04-29T20:15:32.602Z,3.67
2019-04-29T20:18:39.837Z,5.37
2019-04-29T20:21:20.846Z,3.63
2019-04-29T20:23:43.178Z,3.10
2019-04-29T20:26:15.568Z,5.27
2019-04-29T20:28:42.689Z,2.53
2019-04-29T20:31:19.095Z,3.13
2019-04-29T20:33:46.722Z,4.33
2019-04-29T20:36:13.576Z,4.20
2019-04-29T20:38:43.235Z,4.93
2019-04-29T20:41:20.988Z,4.20
2019-04-29T20:43:45.901Z,6.30
2019-04-29T20:46:15.953Z,3.33
2019-04-29T20:48:45.683Z,2.90
2019-04-29T20:51:16.469Z,7.33
2019-04-29T20:53:49.818Z,4.20
2019-04-29T20:56:26.347Z,8.77
2019-04-29T20:58:49.081Z,3.63
2019-04-29T21:01:25.518Z,3.30
2019-04-29T21:03:56.698Z,3.33
2019-04-29T21:06:25.219Z,5.27
2019-04-29T21:08:55.141Z,2.23
2019-04-29T21:11:31.372Z,4.50
2019-04-29T21:14:15.708Z,5.90
2019-04-29T21:16:46.678Z,7.20
2019-04-29T21:19:15.482Z,7.80
2019-04-29T21:21:45.881Z,2.97
2019-04-29T21:24:18.472Z,4.23
2019-04-29T21:26:46.542Z,3.57
2019-04-29T21:29:19.195Z,6.80
2019-04-29T21:31:46.093Z,15.20
2019-04-29T21:34:17.452Z,4.10
2019-04-29T21:36:57.486Z,2.83
2019-04-29T21:39:36.329Z,5.30
2019-04-29T21:42:28.058Z,10.50
2019-04-29T21:45:03.420Z,3.63
2019-04-29T21:47:41.705Z,4.27
2019-04-29T21:49:59.642Z,2.90
2019-04-29T21:56:06.314Z,5.23
2019-04-29T21:58:32.982Z,3.40
2019-04-29T22:01:04.827Z,6.33
2019-04-29T22:03:33.579Z,3.77
2019-04-29T22:06:02.313Z,3.70
2019-04-29T22:08:31.425Z,6.53
2019-04-29T22:11:04.916Z,2.50
2019-04-29T22:13:35.597Z,3.40
2019-04-29T22:16:01.669Z,6.57
2019-04-29T22:18:30.634Z,4.03
2019-04-29T22:20:59.462Z,6.43
2019-04-29T22:23:28.467Z,7.90
2019-04-29T22:25:57.131Z,3.10
2019-04-29T22:28:26.127Z,4.40
2019-04-29T22:30:56.205Z,8.97
2019-04-29T22:33:25.346Z,3.20
2019-04-29T22:35:55.446Z,4.10
2019-04-29T22:38:25.051Z,2.43
2019-04-29T22:40:55.909Z,4.47
2019-04-29T22:43:40.290Z,4.23
2019-04-29T22:46:10.686Z,4.27
2019-04-29T22:48:40.708Z,5.03
2019-04-29T22:51:13.897Z,2.50
2019-04-29T22:53:44.743Z,6.23
2019-04-29T22:56:13.960Z,3.33
2019-04-29T22:58:43.852Z,5.07
2019-04-29T23:01:12.039Z,7.73
2019-04-29T23:03:45.130Z,3.87
2019-04-29T23:06:15.690Z,6.30
2019-04-29T23:08:45.022Z,9.37
2019-04-29T23:11:13.864Z,8.47
2019-04-29T23:13:42.629Z,4.57
2019-04-29T23:16:11.401Z,6.47
2019-04-29T23:18:42.537Z,4.23
2019-04-29T23:21:28.610Z,4.83
2019-04-29T23:24:13.236Z,7.40
2019-04-29T23:26:42.557Z,6.90
2019-04-29T23:29:11.612Z,5.63
2019-04-29T23:31:40.309Z,4.30
2019-04-29T23:34:09.225Z,4.70
2019-04-29T23:36:38.479Z,7.63
2019-04-29T23:39:07.400Z,9.90
2019-04-29T23:41:36.695Z,6.37
2019-04-29T23:44:08.795Z,4.40
2019-04-29T23:46:35.961Z,4.60
2019-04-29T23:49:06.786Z,4.43
2019-04-29T23:51:37.721Z,4.93
2019-04-29T23:54:07.922Z,5.57
